Time;durP1;ratioP1;P1;durP2;ratioP2;P2;SDS_P1;SDS_P2;PMS_P1;PMS_P2;Temp;Humidity;BMP_temperature;BMP_pressure;BME280_temperature;BME280_humidity;BME280_pressure;Samples;Min_cycle;Max_cycle;Signal;HPM_P1;HPM_P2
2023/10/22 00:02:05;;;;;;;0.68;0.20;;;10.80;99.90;;;;;;5037250;28;20494;-69
2023/10/22 00:04:31;;;;;;;0.65;0.22;;;10.80;99.90;;;;;;5037325;28;20029;-69
2023/10/22 00:06:57;;;;;;;0.28;0.17;;;10.70;99.90;;;;;;5037329;28;20029;-69
2023/10/22 00:09:23;;;;;;;0.47;0.20;;;10.80;99.90;;;;;;5037203;28;20025;-70
2023/10/22 00:11:49;;;;;;;0.20;0.20;;;10.80;99.90;;;;;;5037239;28;20030;-71
2023/10/22 00:14:14;;;;;;;0.43;0.22;;;10.80;99.90;;;;;;5037269;28;20061;-71
2023/10/22 00:16:40;;;;;;;0.45;0.28;;;10.90;99.90;;;;;;5037473;28;20026;-72
2023/10/22 00:19:06;;;;;;;0.57;0.20;;;10.90;99.90;;;;;;5036955;28;20104;-71
2023/10/22 00:21:32;;;;;;;0.68;0.20;;;10.90;99.90;;;;;;5037064;28;20033;-71
2023/10/22 00:23:58;;;;;;;0.35;0.20;;;10.90;99.90;;;;;;5036883;28;20032;-71
2023/10/22 00:26:24;;;;;;;1.05;0.30;;;10.90;99.90;;;;;;5037160;28;20029;-72
2023/10/22 00:28:50;;;;;;;0.32;0.10;;;10.90;99.90;;;;;;5036794;28;20075;-71
2023/10/22 00:31:15;;;;;;;0.88;0.20;;;10.90;99.90;;;;;;5036854;28;20040;-71
2023/10/22 00:33:41;;;;;;;0.17;0.10;;;10.80;99.90;;;;;;5037091;28;20026;-71
2023/10/22 00:36:07;;;;;;;0.65;0.20;;;10.70;99.90;;;;;;5037020;28;20532;-71
2023/10/22 00:38:33;;;;;;;1.08;0.30;;;10.70;99.90;;;;;;5036711;28;20060;-71
2023/10/22 00:40:58;;;;;;;0.65;0.30;;;10.60;99.90;;;;;;5036593;28;20029;-71
2023/10/22 00:43:24;;;;;;;0.40;0.20;;;10.50;99.90;;;;;;5036502;28;20029;-71
2023/10/22 00:45:50;;;;;;;0.10;0.10;;;10.50;99.90;;;;;;5036693;28;20392;-71
2023/10/22 00:48:17;;;;;;;1.35;0.20;;;10.40;99.90;;;;;;5036598;28;20486;-71
2023/10/22 00:50:43;;;;;;;0.85;0.32;;;10.30;99.90;;;;;;5036972;28;20021;-71
2023/10/22 00:53:13;;;;;;;0.65;0.20;;;10.30;99.90;;;;;;5036709;28;20444;-71
2023/10/22 00:55:40;;;;;;;0.85;0.47;;;10.30;99.90;;;;;;5036353;28;20557;-71
2023/10/22 00:58:07;;;;;;;0.45;0.10;;;10.20;99.90;;;;;;5036281;28;20409;-71
2023/10/22 01:00:34;;;;;;;1.48;0.30;;;10.20;99.90;;;;;;5035170;28;20039;-71
2023/10/22 01:03:01;;;;;;;1.92;0.25;;;10.20;99.90;;;;;;5036155;28;20057;-71
2023/10/22 01:05:28;;;;;;;0.50;0.20;;;10.20;99.90;;;;;;5035743;28;20105;-71
2023/10/22 01:07:54;;;;;;;1.27;0.30;;;10.20;99.90;;;;;;5036155;28;20030;-71
2023/10/22 01:10:20;;;;;;;0.63;0.20;;;10.20;99.90;;;;;;5036327;28;20029;-71
2023/10/22 01:12:45;;;;;;;0.98;0.20;;;10.20;99.90;;;;;;5036081;28;20130;-71
2023/10/22 01:15:11;;;;;;;0.75;0.20;;;10.30;99.90;;;;;;5036239;28;20025;-71
2023/10/22 01:17:36;;;;;;;0.55;0.20;;;10.30;99.90;;;;;;5034761;28;20025;-71
2023/10/22 01:20:03;;;;;;;0.82;0.20;;;10.40;99.90;;;;;;5036193;28;20493;-71
2023/10/22 01:22:28;;;;;;;0.45;0.20;;;10.50;99.90;;;;;;5036305;28;20036;-71
2023/10/22 01:24:54;;;;;;;0.38;0.20;;;10.50;99.90;;;;;;5035796;28;20018;-71
2023/10/22 01:27:20;;;;;;;1.17;0.20;;;10.50;99.90;;;;;;5036018;28;20025;-71
2023/10/22 01:29:46;;;;;;;0.43;0.30;;;10.50;99.90;;;;;;5035969;28;20022;-71
2023/10/22 01:32:12;;;;;;;1.08;0.70;;;10.50;99.90;;;;;;5035694;28;20029;-71
2023/10/22 01:34:38;;;;;;;0.90;0.38;;;10.50;99.90;;;;;;5034387;28;20490;-71
2023/10/22 01:37:04;;;;;;;0.70;0.40;;;10.50;99.90;;;;;;5034445;28;20087;-72
2023/10/22 01:39:29;;;;;;;0.65;0.40;;;10.40;99.90;;;;;;5035450;28;20029;-71
2023/10/22 01:41:55;;;;;;;0.40;0.30;;;10.40;99.90;;;;;;5034525;28;20057;-71
2023/10/22 01:44:21;;;;;;;1.73;0.43;;;10.40;99.90;;;;;;5035715;28;20026;-71
2023/10/22 01:46:46;;;;;;;0.63;0.40;;;10.40;99.90;;;;;;5034172;28;20478;-71
2023/10/22 01:49:12;;;;;;;0.47;0.38;;;10.40;99.90;;;;;;5035343;28;20021;-71
2023/10/22 01:51:38;;;;;;;0.68;0.40;;;10.40;99.90;;;;;;5035561;28;20458;-71
2023/10/22 01:54:06;;;;;;;0.52;0.40;;;10.40;99.90;;;;;;5035395;28;20033;-71
2023/10/22 01:56:32;;;;;;;2.03;0.40;;;10.40;99.90;;;;;;5035233;28;20025;-71
2023/10/22 01:58:58;;;;;;;1.10;0.50;;;10.30;99.90;;;;;;5035047;28;20563;-71
2023/10/22 02:01:26;;;;;;;0.65;0.30;;;10.20;99.90;;;;;;5035148;28;20413;-71
2023/10/22 02:03:52;;;;;;;1.08;0.40;;;10.20;99.90;;;;;;5035017;28;20033;-72
2023/10/22 02:06:17;;;;;;;0.98;0.60;;;10.20;99.90;;;;;;5034009;28;20140;-72
2023/10/22 02:08:46;;;;;;;1.23;0.60;;;10.10;99.90;;;;;;5033733;28;20021;-71
2023/10/22 02:11:12;;;;;;;0.82;0.45;;;10.20;99.90;;;;;;5034878;28;20034;-71
2023/10/22 02:13:38;;;;;;;1.25;0.60;;;10.20;99.90;;;;;;5034894;28;20083;-72
2023/10/22 02:16:04;;;;;;;0.80;0.50;;;10.20;99.90;;;;;;5034615;28;20026;-71
2023/10/22 02:18:29;;;;;;;0.88;0.60;;;10.10;99.90;;;;;;5034998;28;20036;-71
2023/10/22 02:20:59;;;;;;;0.68;0.43;;;10.10;99.90;;;;;;5034713;28;20034;-71
2023/10/22 02:23:26;;;;;;;0.70;0.50;;;10.20;99.90;;;;;;5034975;28;20435;-71
2023/10/22 02:25:52;;;;;;;0.70;0.40;;;10.20;99.90;;;;;;5035433;28;20451;-71
2023/10/22 02:28:18;;;;;;;1.20;0.65;;;10.20;99.90;;;;;;5034645;28;20029;-71
2023/10/22 02:30:47;;;;;;;1.58;0.60;;;10.20;99.90;;;;;;5034498;28;20580;-70
2023/10/22 02:33:13;;;;;;;1.33;0.40;;;10.10;99.90;;;;;;5034619;28;20026;-71
2023/10/22 02:35:43;;;;;;;2.20;0.40;;;10.10;99.90;;;;;;5034975;28;20034;-71
2023/10/22 02:38:12;;;;;;;0.43;0.40;;;10.00;99.90;;;;;;5034779;28;20544;-71
2023/10/22 02:40:38;;;;;;;1.88;0.43;;;10.00;99.90;;;;;;5033015;28;20409;-71
2023/10/22 02:43:05;;;;;;;1.00;0.43;;;9.90;99.90;;;;;;5034270;28;20030;-71
2023/10/22 02:45:30;;;;;;;3.25;0.60;;;9.90;99.90;;;;;;5034333;28;20025;-71
2023/10/22 02:48:00;;;;;;;1.17;0.40;;;9.90;99.90;;;;;;5033011;28;20029;-71
2023/10/22 02:50:26;;;;;;;2.78;0.40;;;9.80;99.90;;;;;;5034188;28;20029;-71
2023/10/22 02:52:53;;;;;;;0.55;0.30;;;9.80;99.90;;;;;;5034229;28;20022;-71
2023/10/22 02:55:18;;;;;;;0.30;0.20;;;9.70;99.90;;;;;;5034421;28;20037;-71
2023/10/22 02:57:44;;;;;;;1.10;0.43;;;9.70;99.90;;;;;;5033931;28;20041;-72
2023/10/22 03:00:11;;;;;;;2.78;0.57;;;9.70;99.90;;;;;;5034300;28;20040;-71
2023/10/22 03:02:40;;;;;;;1.20;0.30;;;9.60;99.90;;;;;;5034763;28;20030;-71
2023/10/22 03:05:07;;;;;;;1.07;0.40;;;9.60;99.90;;;;;;5034335;28;20115;-71
2023/10/22 03:07:33;;;;;;;0.30;0.20;;;9.60;99.90;;;;;;5033891;28;20033;-71
2023/10/22 03:09:59;;;;;;;0.70;0.20;;;9.60;99.90;;;;;;5032593;28;20033;-71
2023/10/22 03:12:24;;;;;;;3.55;0.30;;;9.50;99.90;;;;;;5033859;28;20117;-71
2023/10/22 03:14:52;;;;;;;0.95;0.30;;;9.60;99.90;;;;;;5033841;28;20091;-71
2023/10/22 03:17:18;;;;;;;0.60;0.30;;;9.60;99.90;;;;;;5033768;28;20031;-72
2023/10/22 03:19:44;;;;;;;0.45;0.30;;;9.60;99.90;;;;;;5033796;28;20036;-71
2023/10/22 03:22:09;;;;;;;0.70;0.30;;;9.60;99.90;;;;;;5033718;28;20035;-71
2023/10/22 03:24:35;;;;;;;0.40;0.40;;;9.60;99.90;;;;;;5034108;28;20029;-71
2023/10/22 03:27:04;;;;;;;1.45;0.40;;;9.60;99.90;;;;;;5034238;28;20017;-71
2023/10/22 03:29:30;;;;;;;1.00;0.50;;;9.60;99.90;;;;;;5034374;28;20025;-71
2023/10/22 03:31:59;;;;;;;0.47;0.30;;;9.60;99.90;;;;;;5034509;28;20467;-71
2023/10/22 03:34:25;;;;;;;0.68;0.40;;;9.60;99.90;;;;;;5033545;28;20030;-71
2023/10/22 03:36:51;;;;;;;1.00;0.50;;;9.60;99.90;;;;;;5033533;28;20025;-71
2023/10/22 03:39:17;;;;;;;1.20;0.50;;;9.60;99.90;;;;;;5033464;28;20029;-71
2023/10/22 03:41:46;;;;;;;0.40;0.40;;;9.70;99.90;;;;;;5033470;28;20022;-71
2023/10/22 03:44:12;;;;;;;0.70;0.40;;;9.70;99.90;;;;;;5033485;28;20060;-71
2023/10/22 03:46:38;;;;;;;0.47;0.40;;;9.70;99.90;;;;;;5033400;28;20034;-71
2023/10/22 03:49:03;;;;;;;1.10;0.40;;;9.70;99.90;;;;;;5033302;28;20037;-71
2023/10/22 03:51:29;;;;;;;1.52;0.30;;;9.70;99.90;;;;;;5033877;28;20025;-71
2023/10/22 03:53:56;;;;;;;0.57;0.40;;;9.70;99.90;;;;;;5033346;28;20371;-71
2023/10/22 03:56:22;;;;;;;0.82;0.40;;;9.70;99.90;;;;;;5033579;28;20022;-71
2023/10/22 03:58:48;;;;;;;1.25;0.50;;;9.70;99.90;;;;;;5033277;28;20037;-71
2023/10/22 04:01:14;;;;;;;0.40;0.30;;;9.70;99.90;;;;;;5033129;28;20026;-71
2023/10/22 04:03:40;;;;;;;0.82;0.30;;;9.70;99.90;;;;;;5033135;28;20034;-71
2023/10/22 04:06:05;;;;;;;2.03;0.55;;;9.70;99.90;;;;;;5031998;28;20033;-71
2023/10/22 04:08:31;;;;;;;0.55;0.40;;;9.60;99.90;;;;;;5033225;28;20033;-71
2023/10/22 04:10:57;;;;;;;1.15;0.57;;;9.70;99.90;;;;;;5033116;28;20497;-71
2023/10/22 04:13:23;;;;;;;0.73;0.40;;;9.70;99.90;;;;;;5033460;28;20121;-71
2023/10/22 04:15:49;;;;;;;0.60;0.40;;;9.70;99.90;;;;;;5033230;28;20021;-71
2023/10/22 04:18:16;;;;;;;0.90;0.43;;;9.80;99.90;;;;;;5033283;28;20104;-71
2023/10/22 04:20:42;;;;;;;0.82;0.70;;;9.80;99.90;;;;;;5033341;28;20383;-71
2023/10/22 04:23:11;;;;;;;0.70;0.50;;;9.80;99.90;;;;;;5033670;28;20124;-72
2023/10/22 04:25:42;;;;;;;0.73;0.50;;;9.90;99.90;;;;;;5033631;28;20496;-72
2023/10/22 04:28:09;;;;;;;0.77;0.47;;;9.90;99.90;;;;;;5033706;28;20021;-72
2023/10/22 04:30:39;;;;;;;0.70;0.40;;;9.90;99.90;;;;;;5033188;28;20025;-72
2023/10/22 04:33:05;;;;;;;0.68;0.50;;;9.90;99.90;;;;;;5033377;28;20040;-72
2023/10/22 04:35:35;;;;;;;0.85;0.45;;;10.00;99.90;;;;;;5033392;28;20545;-72
2023/10/22 04:38:02;;;;;;;1.25;0.60;;;10.00;99.90;;;;;;5033315;28;20462;-72
2023/10/22 04:40:34;;;;;;;1.80;0.60;;;10.00;99.90;;;;;;5035159;28;20048;-72
2023/10/22 04:43:01;;;;;;;0.95;0.60;;;10.00;99.90;;;;;;5036596;28;20430;-72
2023/10/22 04:45:26;;;;;;;0.90;0.60;;;9.90;99.90;;;;;;5036553;28;20064;-72
2023/10/22 04:47:54;;;;;;;2.53;0.90;;;9.90;99.90;;;;;;5036861;28;20057;-72
2023/10/22 04:50:20;;;;;;;1.42;0.77;;;9.90;99.90;;;;;;5036639;28;20018;-72
2023/10/22 04:52:46;;;;;;;1.13;0.70;;;9.90;99.90;;;;;;5036543;28;20053;-72
2023/10/22 04:55:11;;;;;;;1.60;0.68;;;10.00;99.90;;;;;;5036658;28;20086;-72
2023/10/22 04:57:38;;;;;;;1.15;0.63;;;9.90;99.90;;;;;;5036262;28;20030;-72
2023/10/22 05:00:07;;;;;;;0.90;0.70;;;9.90;99.90;;;;;;5036526;28;20056;-72
2023/10/22 05:02:33;;;;;;;1.27;0.50;;;9.90;99.90;;;;;;5036483;28;20449;-72
2023/10/22 05:04:59;;;;;;;1.42;0.60;;;9.90;99.90;;;;;;5036224;28;20032;-72
2023/10/22 05:07:25;;;;;;;0.68;0.50;;;9.90;99.90;;;;;;5036364;28;20029;-72
2023/10/22 05:09:50;;;;;;;9.60;5.70;;;9.90;99.90;;;;;;5036043;28;20029;-72
2023/10/22 05:12:16;;;;;;;10.98;6.88;;;9.80;99.90;;;;;;5036590;28;20470;-72
2023/10/22 05:14:42;;;;;;;13.70;7.80;;;9.80;99.90;;;;;;5036278;28;20397;-72
2023/10/22 05:17:08;;;;;;;13.80;8.43;;;9.70;99.90;;;;;;5035985;28;20091;-72
2023/10/22 05:19:35;;;;;;;12.50;7.00;;;9.80;99.90;;;;;;5035937;28;20026;-72
2023/10/22 05:22:00;;;;;;;8.80;5.35;;;9.80;99.90;;;;;;5034800;28;20091;-72
2023/10/22 05:24:26;;;;;;;7.75;4.88;;;9.70;99.90;;;;;;5034659;28;20026;-72
2023/10/22 05:26:53;;;;;;;7.18;4.53;;;9.80;99.90;;;;;;5035908;28;20025;-72
2023/10/22 05:29:18;;;;;;;8.60;4.55;;;9.80;99.90;;;;;;5035663;28;20018;-72
2023/10/22 05:31:44;;;;;;;6.13;2.78;;;9.80;99.90;;;;;;5036000;28;20144;-72
2023/10/22 05:34:10;;;;;;;2.65;1.50;;;9.80;99.90;;;;;;5035619;28;20036;-72
2023/10/22 05:36:36;;;;;;;2.22;1.27;;;9.80;99.90;;;;;;5036176;28;20033;-72
2023/10/22 05:39:02;;;;;;;1.92;1.20;;;9.80;99.90;;;;;;5034152;28;20052;-72
2023/10/22 05:41:28;;;;;;;2.78;1.45;;;9.80;99.90;;;;;;5034398;28;20083;-71
2023/10/22 05:44:01;;;;;;;4.15;1.95;;;9.70;99.90;;;;;;5034540;28;20026;-72
2023/10/22 05:46:36;;;;;;;5.15;2.50;;;9.80;99.90;;;;;;5034429;28;20043;-72
2023/10/22 05:49:03;;;;;;;5.07;3.60;;;9.80;99.90;;;;;;5033367;28;20026;-72
2023/10/22 05:51:29;;;;;;;5.47;2.78;;;9.80;99.90;;;;;;5033135;28;20474;-72
2023/10/22 05:53:54;;;;;;;4.72;2.95;;;9.80;99.90;;;;;;5034069;28;20076;-72
2023/10/22 05:56:23;;;;;;;3.17;2.00;;;9.80;99.90;;;;;;5035295;28;20048;-72
2023/10/22 05:58:49;;;;;;;3.08;1.90;;;9.80;99.90;;;;;;5035036;28;20505;-73
2023/10/22 06:01:14;;;;;;;3.63;2.40;;;9.80;99.90;;;;;;5035127;28;20038;-72
2023/10/22 06:03:40;;;;;;;3.22;2.30;;;9.80;99.90;;;;;;5035174;28;20095;-72
2023/10/22 06:06:06;;;;;;;2.65;1.83;;;9.80;99.90;;;;;;5035428;28;20022;-72
2023/10/22 06:08:31;;;;;;;2.67;1.73;;;9.70;99.90;;;;;;5035216;28;20018;-72
2023/10/22 06:10:58;;;;;;;4.07;1.77;;;9.70;99.90;;;;;;5035002;28;20568;-73
2023/10/22 06:13:23;;;;;;;2.40;1.60;;;9.70;99.90;;;;;;5035638;28;20386;-73
2023/10/22 06:15:49;;;;;;;2.85;1.95;;;9.80;99.90;;;;;;5034916;28;20029;-73
2023/10/22 06:18:14;;;;;;;2.95;1.60;;;9.70;99.90;;;;;;5033735;28;20030;-73
2023/10/22 06:20:40;;;;;;;2.80;1.80;;;9.80;99.90;;;;;;5034975;28;20033;-72
2023/10/22 06:23:06;;;;;;;2.67;1.80;;;9.80;99.90;;;;;;5034765;28;20036;-72
2023/10/22 06:25:33;;;;;;;3.88;2.63;;;9.70;99.90;;;;;;5034838;28;20026;-72
2023/10/22 06:28:00;;;;;;;2.90;1.90;;;9.60;99.90;;;;;;5034629;28;20033;-72
2023/10/22 06:30:26;;;;;;;1.98;1.20;;;9.60;99.90;;;;;;5034578;28;20087;-72
2023/10/22 06:32:53;;;;;;;2.92;1.13;;;9.60;99.90;;;;;;5035219;28;20080;-72
2023/10/22 06:35:19;;;;;;;1.10;0.70;;;9.50;99.90;;;;;;5034692;28;20397;-72
2023/10/22 06:37:50;;;;;;;1.77;1.10;;;9.50;99.90;;;;;;5034801;28;20053;-72
2023/10/22 06:40:17;;;;;;;1.77;1.20;;;9.50;99.90;;;;;;5034820;28;20116;-72
2023/10/22 06:42:43;;;;;;;1.67;1.00;;;9.50;99.90;;;;;;5034433;28;20100;-72
2023/10/22 06:45:09;;;;;;;1.42;0.93;;;9.60;99.90;;;;;;5034450;28;20029;-72
2023/10/22 06:47:38;;;;;;;1.42;1.02;;;9.60;99.90;;;;;;5034366;28;20037;-72
2023/10/22 06:50:05;;;;;;;2.05;1.08;;;9.60;99.90;;;;;;5034467;28;20018;-72
2023/10/22 06:52:31;;;;;;;3.10;1.70;;;9.70;99.90;;;;;;5034367;28;20390;-72
2023/10/22 06:54:57;;;;;;;3.22;1.70;;;9.70;99.90;;;;;;5033085;28;20037;-72
2023/10/22 06:57:23;;;;;;;3.60;1.55;;;9.70;99.90;;;;;;5034237;28;20022;-72
2023/10/22 06:59:50;;;;;;;2.45;1.60;;;9.70;99.90;;;;;;5034213;28;20501;-72
2023/10/22 07:02:17;;;;;;;2.20;1.40;;;9.80;99.90;;;;;;5033590;28;20036;-72
2023/10/22 07:04:44;;;;;;;1.67;1.00;;;9.80;99.90;;;;;;5034367;28;20033;-72
2023/10/22 07:07:10;;;;;;;1.75;0.90;;;9.80;99.90;;;;;;5034055;28;20025;-72
2023/10/22 07:09:36;;;;;;;1.17;0.85;;;9.80;99.90;;;;;;5033998;28;20433;-72
2023/10/22 07:12:03;;;;;;;2.28;1.08;;;9.80;99.90;;;;;;5034025;28;20017;-72
2023/10/22 07:14:28;;;;;;;1.92;0.90;;;9.90;99.90;;;;;;5034043;28;20026;-72
2023/10/22 07:16:54;;;;;;;1.67;0.90;;;9.80;99.90;;;;;;5034005;28;20455;-72
2023/10/22 07:19:20;;;;;;;1.85;1.00;;;9.90;99.90;;;;;;5033819;28;20036;-72
2023/10/22 07:21:46;;;;;;;3.03;0.80;;;9.90;99.90;;;;;;5032882;28;20547;-72
2023/10/22 07:24:11;;;;;;;1.90;1.00;;;10.00;99.90;;;;;;5033868;28;20025;-72
2023/10/22 07:26:38;;;;;;;1.75;0.98;;;10.00;99.90;;;;;;5033809;28;20025;-72
2023/10/22 07:29:03;;;;;;;1.58;0.70;;;10.00;99.90;;;;;;5033922;28;20052;-72
2023/10/22 07:31:29;;;;;;;1.80;0.80;;;10.10;99.90;;;;;;5033656;28;20481;-72
2023/10/22 07:33:55;;;;;;;1.88;1.10;;;10.10;99.90;;;;;;5033730;28;20508;-72
2023/10/22 07:36:21;;;;;;;2.17;1.02;;;10.10;99.90;;;;;;5032523;28;20091;-72
2023/10/22 07:38:51;;;;;;;2.00;1.20;;;10.10;99.90;;;;;;5033585;28;20030;-72
2023/10/22 07:41:17;;;;;;;1.88;1.17;;;10.10;99.90;;;;;;5032374;28;20057;-72
2023/10/22 07:43:43;;;;;;;2.28;1.50;;;10.20;99.90;;;;;;5033547;28;20060;-72
2023/10/22 07:46:10;;;;;;;2.47;1.52;;;10.20;99.90;;;;;;5033598;28;20076;-72
2023/10/22 07:48:37;;;;;;;2.67;1.65;;;10.20;99.90;;;;;;5033788;28;20022;-72
2023/10/22 07:51:15;;;;;;;2.13;1.42;;;10.20;99.90;;;;;;5033353;28;20067;-72
2023/10/22 07:53:40;;;;;;;4.07;1.83;;;10.20;99.90;;;;;;5033535;28;20496;-72
2023/10/22 07:56:06;;;;;;;3.50;2.30;;;10.30;99.90;;;;;;5033964;28;20033;-72
2023/10/22 07:58:33;;;;;;;4.07;2.20;;;10.30;99.90;;;;;;5033288;28;20140;-72
2023/10/22 08:00:59;;;;;;;2.97;1.75;;;10.40;99.90;;;;;;5033505;28;20397;-72
2023/10/22 08:03:28;;;;;;;2.72;1.60;;;10.40;99.90;;;;;;5033369;28;20026;-72
2023/10/22 08:05:54;;;;;;;3.60;1.70;;;10.50;99.90;;;;;;5033924;28;20026;-72
2023/10/22 08:08:19;;;;;;;4.20;1.58;;;10.50;99.90;;;;;;5033480;28;20026;-72
2023/10/22 08:10:45;;;;;;;2.47;1.40;;;10.50;99.90;;;;;;5033193;28;20034;-72
2023/10/22 08:13:11;;;;;;;3.85;1.40;;;10.50;99.90;;;;;;5033449;28;20481;-72
2023/10/22 08:15:36;;;;;;;2.47;1.50;;;10.50;99.90;;;;;;5035883;28;20547;-72
2023/10/22 08:18:03;;;;;;;1.98;1.17;;;10.50;99.90;;;;;;5037793;28;20033;-71
2023/10/22 08:20:28;;;;;;;2.50;1.27;;;10.60;99.90;;;;;;5037379;28;20094;-71
2023/10/22 08:22:55;;;;;;;2.78;1.50;;;10.70;99.90;;;;;;5036273;28;20037;-71
2023/10/22 08:25:21;;;;;;;2.92;1.23;;;10.70;99.90;;;;;;5037430;28;20026;-71
2023/10/22 08:27:46;;;;;;;2.30;1.10;;;10.70;99.90;;;;;;5036192;28;20021;-71
2023/10/22 08:30:12;;;;;;;2.00;0.90;;;10.80;99.90;;;;;;5037282;28;20482;-71
2023/10/22 08:32:44;;;;;;;1.77;0.82;;;10.80;99.90;;;;;;5037341;28;20033;-71
2023/10/22 08:35:09;;;;;;;1.75;0.90;;;10.80;99.90;;;;;;5036253;28;20394;-71
2023/10/22 08:37:35;;;;;;;1.52;0.82;;;10.80;99.90;;;;;;5037142;28;20030;-71
2023/10/22 08:40:00;;;;;;;1.75;0.80;;;10.90;99.90;;;;;;5036999;28;20109;-71
2023/10/22 08:42:27;;;;;;;1.60;1.05;;;10.90;99.90;;;;;;5019191;28;20458;-71
2023/10/22 08:44:53;;;;;;;1.27;0.70;;;11.00;99.90;;;;;;5036077;28;20022;-71
2023/10/22 08:47:19;;;;;;;2.25;1.00;;;11.00;99.90;;;;;;5039052;28;20397;-71
2023/10/22 08:49:49;;;;;;;1.38;0.80;;;10.90;99.90;;;;;;5039816;28;20500;-71
2023/10/22 08:52:14;;;;;;;2.13;0.77;;;10.90;99.90;;;;;;5038868;28;20443;-70
2023/10/22 08:54:40;;;;;;;4.32;1.17;;;10.90;99.90;;;;;;5038172;28;20021;-71
2023/10/22 08:57:06;;;;;;;2.97;1.00;;;10.90;99.90;;;;;;5037603;28;20478;-71
2023/10/22 08:59:37;;;;;;;1.60;0.70;;;10.90;99.90;;;;;;5036233;28;20505;-71
2023/10/22 09:02:10;;;;;;;2.28;0.98;;;11.00;99.90;;;;;;5038548;28;20029;-71
2023/10/22 09:04:36;;;;;;;1.52;0.80;;;11.00;99.90;;;;;;5038244;28;20045;-71
2023/10/22 09:07:02;;;;;;;1.77;0.70;;;11.00;99.90;;;;;;5037820;28;20022;-71
2023/10/22 09:09:29;;;;;;;2.05;0.70;;;11.10;99.90;;;;;;5037442;28;20028;-71
2023/10/22 09:11:55;;;;;;;1.52;0.80;;;11.20;99.90;;;;;;5037704;28;20029;-71
2023/10/22 09:14:22;;;;;;;1.00;0.60;;;11.20;99.90;;;;;;5037177;28;20021;-71
2023/10/22 09:16:49;;;;;;;1.27;0.63;;;11.30;99.90;;;;;;5037200;28;20561;-71
2023/10/22 09:19:33;;;;;;;2.78;1.10;;;11.30;99.90;;;;;;5036778;28;20060;-71
2023/10/22 09:21:59;;;;;;;2.97;1.17;;;11.40;99.90;;;;;;5036873;28;20022;-71
2023/10/22 09:24:25;;;;;;;4.40;1.05;;;11.50;99.90;;;;;;5037291;28;20028;-71
2023/10/22 09:26:50;;;;;;;3.67;2.13;;;11.60;99.90;;;;;;5036919;28;20478;-71
2023/10/22 09:29:16;;;;;;;2.05;1.00;;;11.60;99.90;;;;;;5037135;28;20029;-71
2023/10/22 09:31:55;;;;;;;1.70;0.88;;;11.70;99.90;;;;;;5036231;28;20040;-71
2023/10/22 09:34:27;;;;;;;1.33;0.70;;;11.70;99.90;;;;;;5039077;28;20057;-71
2023/10/22 09:36:57;;;;;;;1.55;0.75;;;11.80;99.90;;;;;;5037538;28;20037;-71
2023/10/22 09:39:35;;;;;;;0.90;0.55;;;11.80;99.90;;;;;;5038887;28;20505;-71
2023/10/22 09:42:03;;;;;;;1.88;0.60;;;11.90;99.90;;;;;;5038458;28;20029;-71
2023/10/22 09:44:33;;;;;;;2.17;1.25;;;11.90;99.90;;;;;;5036551;28;20030;-70
2023/10/22 09:47:03;;;;;;;1.05;0.55;;;12.00;99.90;;;;;;5038195;28;20105;-70
2023/10/22 09:49:38;;;;;;;1.85;0.70;;;12.00;99.90;;;;;;5037586;28;20028;-71
2023/10/22 09:52:08;;;;;;;5.95;1.17;;;12.00;99.90;;;;;;5038032;28;20113;-70
2023/10/22 09:54:38;;;;;;;2.15;0.90;;;12.00;99.90;;;;;;5035716;28;20133;-71
2023/10/22 09:57:30;;;;;;;2.50;0.65;;;12.10;99.90;;;;;;5035345;28;20018;-71
2023/10/22 10:00:01;;;;;;;2.40;1.08;;;12.20;99.90;;;;;;5032156;28;20048;-71
2023/10/22 10:02:28;;;;;;;2.50;0.98;;;12.20;99.90;;;;;;5031751;28;20029;-71
2023/10/22 10:04:54;;;;;;;1.52;0.82;;;12.30;99.90;;;;;;5033997;28;20049;-71
2023/10/22 10:07:23;;;;;;;1.75;0.70;;;12.30;99.90;;;;;;5034011;28;20037;-71
2023/10/22 10:09:49;;;;;;;2.00;1.10;;;12.40;99.90;;;;;;5035033;28;20053;-71
2023/10/22 10:12:16;;;;;;;1.85;0.90;;;12.40;99.90;;;;;;5034320;28;20409;-71
2023/10/22 10:14:46;;;;;;;4.32;1.20;;;12.50;99.90;;;;;;5035263;28;20452;-71
2023/10/22 10:17:13;;;;;;;1.38;0.82;;;12.50;99.90;;;;;;5035243;28;20021;-70
2023/10/22 10:19:39;;;;;;;1.88;0.70;;;12.50;99.90;;;;;;5035004;28;20026;-71
2023/10/22 10:22:06;;;;;;;1.38;0.60;;;12.50;99.90;;;;;;5035246;28;20091;-71
2023/10/22 10:24:32;;;;;;;1.20;0.55;;;12.60;99.90;;;;;;5035264;28;20021;-71
2023/10/22 10:26:58;;;;;;;1.90;0.90;;;12.60;99.90;;;;;;5035341;28;20021;-70
2023/10/22 10:29:25;;;;;;;1.40;0.80;;;12.70;99.90;;;;;;5035055;28;20083;-71
2023/10/22 10:31:51;;;;;;;1.13;0.70;;;12.70;99.90;;;;;;5034641;28;20381;-71
2023/10/22 10:34:27;;;;;;;1.65;0.77;;;12.80;99.90;;;;;;5034653;28;20470;-72
2023/10/22 10:36:53;;;;;;;1.63;0.60;;;12.90;99.90;;;;;;5034369;28;20049;-71
2023/10/22 10:39:52;;;;;;;1.30;0.80;;;13.00;99.90;;;;;;5034918;28;20506;-71
2023/10/22 10:42:30;;;;;;;0.85;0.50;;;13.10;99.90;;;;;;5035448;28;20033;-71
2023/10/22 10:44:59;;;;;;;1.15;0.50;;;13.20;99.90;;;;;;5035779;28;20013;-71
2023/10/22 10:47:25;;;;;;;1.20;0.40;;;13.30;99.90;;;;;;5036259;28;20541;-71
2023/10/22 10:49:59;;;;;;;1.33;0.47;;;13.30;99.90;;;;;;5034785;28;20037;-72
2023/10/22 10:52:25;;;;;;;2.72;0.50;;;13.30;99.90;;;;;;5034596;28;20049;-72
2023/10/22 10:55:06;;;;;;;0.70;0.30;;;13.30;99.90;;;;;;5034218;28;20466;-72
2023/10/22 10:57:40;;;;;;;1.38;0.60;;;13.40;99.90;;;;;;5034182;28;20073;-72
2023/10/22 11:00:09;;;;;;;0.80;0.47;;;13.40;99.90;;;;;;5034352;28;20083;-71
2023/10/22 11:02:45;;;;;;;1.02;0.50;;;13.60;99.90;;;;;;5034318;28;20113;-71
2023/10/22 11:05:12;;;;;;;2.15;0.50;;;13.60;99.90;;;;;;5033981;28;20029;-72
2023/10/22 11:07:39;;;;;;;0.73;0.40;;;13.70;99.90;;;;;;5034226;28;20033;-71
2023/10/22 11:10:14;;;;;;;1.58;0.68;;;13.90;99.90;;;;;;5032640;28;20112;-72
2023/10/22 11:12:40;;;;;;;1.92;0.63;;;14.00;99.90;;;;;;5032658;28;20025;-71
2023/10/22 11:15:08;;;;;;;2.80;0.60;;;14.00;99.90;;;;;;5034004;28;20413;-72
2023/10/22 11:17:34;;;;;;;1.15;0.55;;;13.90;99.90;;;;;;5033824;28;20017;-71
2023/10/22 11:20:00;;;;;;;1.45;0.70;;;13.90;99.90;;;;;;5033807;28;20032;-72
2023/10/22 11:22:27;;;;;;;1.73;0.50;;;13.90;99.90;;;;;;5033740;28;20398;-72
2023/10/22 11:24:53;;;;;;;0.77;0.40;;;14.00;99.90;;;;;;5033682;28;20484;-72
2023/10/22 11:27:20;;;;;;;1.50;0.50;;;14.00;99.90;;;;;;5033744;28;20091;-72
2023/10/22 11:29:47;;;;;;;1.52;0.60;;;13.90;99.90;;;;;;5032486;28;20390;-72
2023/10/22 11:32:21;;;;;;;0.90;0.50;;;13.90;99.90;;;;;;5033903;28;20052;-72
2023/10/22 11:34:48;;;;;;;2.25;0.70;;;13.90;99.90;;;;;;5033929;28;20025;-71
2023/10/22 11:37:14;;;;;;;1.38;0.60;;;14.00;99.90;;;;;;5032280;28;20405;-72
2023/10/22 11:39:41;;;;;;;0.93;0.60;;;14.10;99.90;;;;;;5033465;28;20028;-71
2023/10/22 11:42:10;;;;;;;1.20;0.52;;;14.30;99.90;;;;;;5033461;28;20021;-71
2023/10/22 11:44:37;;;;;;;0.88;0.45;;;14.40;99.90;;;;;;5034058;28;20018;-71
2023/10/22 11:47:23;;;;;;;1.77;0.47;;;14.60;99.90;;;;;;5033726;28;20389;-71
2023/10/22 11:49:49;;;;;;;0.80;0.40;;;14.70;99.90;;;;;;5033438;28;20018;-71
2023/10/22 11:52:38;;;;;;;0.65;0.30;;;14.80;99.90;;;;;;5033466;28;20029;-71
2023/10/22 11:55:07;;;;;;;1.42;0.30;;;14.80;99.90;;;;;;5033820;28;20022;-71
2023/10/22 11:57:37;;;;;;;1.40;0.40;;;14.80;99.90;;;;;;5033198;28;20053;-72
2023/10/22 12:00:04;;;;;;;0.50;0.20;;;14.70;99.90;;;;;;5033343;28;20018;-72
2023/10/22 12:02:30;;;;;;;2.90;0.82;;;14.70;99.90;;;;;;5033313;28;20028;-72
2023/10/22 12:04:56;;;;;;;2.72;0.50;;;14.70;99.90;;;;;;5033570;28;20026;-72
2023/10/22 12:07:22;;;;;;;12.35;5.05;;;14.70;99.90;;;;;;5033211;28;20026;-72
2023/10/22 12:09:48;;;;;;;1.00;0.40;;;14.70;99.90;;;;;;5031964;28;20029;-72
2023/10/22 12:12:13;;;;;;;2.30;0.40;;;14.60;99.90;;;;;;5031978;28;20060;-72
2023/10/22 12:14:39;;;;;;;1.27;0.60;;;14.60;99.90;;;;;;5033242;28;20592;-72
2023/10/22 12:17:06;;;;;;;1.45;0.50;;;14.70;99.90;;;;;;5033159;28;20060;-72
2023/10/22 12:19:31;;;;;;;1.25;0.28;;;14.60;99.90;;;;;;5033148;28;20482;-72
2023/10/22 12:21:57;;;;;;;1.00;0.20;;;14.70;99.90;;;;;;5033793;28;20037;-72
2023/10/22 12:24:23;;;;;;;0.73;0.25;;;14.70;99.90;;;;;;5031810;28;20120;-72
2023/10/22 12:26:48;;;;;;;1.17;0.30;;;14.70;99.10;;;;;;5033230;28;20072;-72
2023/10/22 12:29:14;;;;;;;0.90;0.32;;;14.70;99.90;;;;;;5033117;28;20029;-73
2023/10/22 12:31:41;;;;;;;2.13;0.50;;;14.70;99.90;;;;;;5033360;28;20026;-73
2023/10/22 12:34:07;;;;;;;0.88;0.30;;;14.80;99.90;;;;;;5031721;28;20074;-72
2023/10/22 12:36:33;;;;;;;1.27;0.95;;;14.80;99.90;;;;;;5031729;28;20445;-71
2023/10/22 12:38:58;;;;;;;0.50;0.30;;;14.90;99.90;;;;;;5033322;28;20029;-71
2023/10/22 12:41:24;;;;;;;0.68;0.40;;;14.80;99.90;;;;;;5033329;28;20060;-71
2023/10/22 12:43:50;;;;;;;1.60;0.30;;;14.90;99.70;;;;;;5033169;28;20022;-72
2023/10/22 12:46:17;;;;;;;0.50;0.20;;;14.80;99.40;;;;;;5031699;28;20025;-71
2023/10/22 12:48:43;;;;;;;1.58;0.45;;;14.80;99.90;;;;;;5032902;28;20022;-71
2023/10/22 12:51:09;;;;;;;0.95;0.50;;;14.80;99.90;;;;;;5032754;28;20025;-71